Bethel, AK

8:32 AM AKDT on September 01, 2015 (GMT -0800)
Bethel | | Change Station
CLOSE
Current Station
Airport
Location: Bethel,
Elevation: 148 ft
Nearby Weather Stations

Elev 148 ft 60.79 °N, 161.83 °W | Updated 39 minutes ago

Fog
Fog
32 °F
Feels Like 26 °F
N
7
Wind Variable Wind from SSE

Today
High -- | Low -- °F
--% Chance of Precip.
Yesterday
High -- | Low -- °F
Precip. -- in
7:40 AM 9:52 PM
Waning Gibbous, 88% visible
Pressure 30.17 in
Visibility 0.2 miles
Clouds
Windchill 26 °F
Dew Point 32 °F
Humidity 100%
Rainfall 0.00 in
Snow Depth Not available.
UV Not available.
Pollen Not available.
Air Quality Not available.
Flu Activity Not available.
METAR PABE 011553Z 15006KT 1/4SM R19R/1000V1200FT FG VV001 00/00 A3017 RMK AO2 SLP217 I1001 T00000000
Pressure 30.17 in
Visibility 0.2 miles
Clouds
Windchill 26 °F
Dew Point 32 °F
Humidity 100%
Rainfall 0.00 in
Snow Depth Not available.
UV Not available.
Pollen Not available.
Air Quality Not available.
Flu Activity Not available.
METAR PABE 011553Z 15006KT 1/4SM R19R/1000V1200FT FG VV001 00/00 A3017 RMK AO2 SLP217 I1001 T00000000

10-Day Weather Forecast

×

Almanac

Astronomy

Sep. 01, 2015 Rise Set
Actual Time
Civil Twilight
Nautical Twilight
Astronomical Twilight
Moon
Length of Visible Light
Length of Day
Tomorrow will be .
, % of the Moon is Illuminated

Today's Extremes

State Highs State Lows

Community

WunderPhotos

Upload Photos

1,851,548 photos uploaded!

WunderBlogs® & News

Nearby

Air Quality

  Air Quality AQ Index Pollutant
Not available.

Snow Depth

Station Depth Elevation

Earthquake Activity

City Distance Mag. Time & Date
Minimum magnitude displayed is 2.5.

Coastal Water Temperatures

Place Temperature

Stations

Nearby Weather Stations

Station Location Temp. Windchill Dew Point Humidity Wind Precip. Elev Updated Type